Terminal Aerodrome Forecast
Issued by NWS

Home | Current Version | Previous Version | Text Only | Print | Product List | Glossary On
Versions: 1 2 3 4 5 6 7 8 9 10 11 12 13 14 15 16 17 18 19 20 21 22 23 24 25 26 27 28 29
000
FTUS45 KGJT 012327
TAFEGE
TAF
KEGE 012327Z 0200/0224 07012G17KT P6SM VCTS FEW100CB BKN110
      TEMPO 0200/0201 VRB15G25KT -TSRA BKN090CB
     FM020200 08007KT P6SM VCSH SCT080 BKN120
     FM020900 00000KT P6SM SCT200
     FM021900 28005KT P6SM FEW120 SCT250
      AMD LTD TO CLD VIS AND WIND 0202/0213=

USA.gov is the U.S. government's official web portal to all federal, state and local government web resources and services.